Time;durP1;ratioP1;P1;durP2;ratioP2;P2;SDS_P1;SDS_P2;PMS_P1;PMS_P2;Temp;Humidity;BMP_temperature;BMP_pressure;BME280_temperature;BME280_humidity;BME280_pressure;Samples;Min_cycle;Max_cycle;Signal;HPM_P1;HPM_P2
2021/08/08 00:01:53;;;;;;;8.52;2.90;;;18.20;99.90;;;18.83;95.30;100010.69;5040790;28;20192;-69
2021/08/08 00:04:22;;;;;;;8.25;2.80;;;18.20;99.90;;;18.83;95.38;100016.00;5043279;28;20196;-69
2021/08/08 00:06:49;;;;;;;8.52;3.05;;;18.10;99.90;;;18.82;94.91;100009.03;5058504;28;20679;-71
2021/08/08 00:09:16;;;;;;;6.63;2.60;;;18.20;99.90;;;18.81;95.14;100019.75;5060640;28;20220;-70
2021/08/08 00:11:43;;;;;;;8.05;2.65;;;18.10;99.90;;;18.80;95.20;100020.72;5061081;28;20189;-69
2021/08/08 00:14:11;;;;;;;7.60;2.70;;;18.10;99.90;;;18.79;95.31;100022.53;5042138;28;20251;-71
2021/08/08 00:16:38;;;;;;;8.20;2.90;;;18.10;99.90;;;18.80;94.71;100024.22;5059951;28;20228;-71
2021/08/08 00:19:05;;;;;;;6.40;2.45;;;18.10;99.90;;;18.79;94.67;100030.47;5060440;28;20712;-70
2021/08/08 00:21:32;;;;;;;6.55;2.60;;;18.10;99.90;;;18.79;94.67;100025.16;5039034;28;20599;-70
2021/08/08 00:23:58;;;;;;;7.78;2.60;;;18.10;99.90;;;18.81;94.50;100027.69;5057977;28;20189;-71
2021/08/08 00:26:25;;;;;;;7.25;2.83;;;18.10;99.90;;;18.76;94.20;100030.72;5057837;28;20181;-71
2021/08/08 00:28:52;;;;;;;7.93;2.70;;;18.10;99.90;;;18.74;94.07;100030.84;5041599;28;20228;-72
2021/08/08 00:31:24;;;;;;;6.88;2.60;;;18.00;99.90;;;18.71;93.61;100028.47;5061551;28;20195;-73
2021/08/08 00:33:53;;;;;;;7.03;2.90;;;18.00;99.90;;;18.69;93.86;100018.94;5058168;28;20188;-71
2021/08/08 00:36:21;;;;;;;7.68;2.60;;;18.00;99.90;;;18.67;93.79;100028.84;5058474;28;20187;-75
2021/08/08 00:38:49;;;;;;;8.15;2.50;;;18.00;99.90;;;18.66;93.40;100030.66;5043665;28;20217;-72
2021/08/08 00:41:16;;;;;;;8.75;2.55;;;17.90;99.90;;;18.64;93.29;100040.53;5035095;28;20235;-71
2021/08/08 00:43:43;;;;;;;6.13;2.38;;;17.90;99.90;;;18.63;93.32;100045.97;5034568;28;20619;-71
2021/08/08 00:46:11;;;;;;;7.97;2.55;;;17.90;99.90;;;18.60;93.24;100051.53;5034652;28;20200;-71
2021/08/08 00:48:39;;;;;;;7.57;2.30;;;17.90;99.90;;;18.57;93.10;100046.47;5034817;28;20189;-71
2021/08/08 00:51:07;;;;;;;8.20;2.42;;;17.80;99.90;;;18.57;93.54;100049.13;5034539;28;20699;-71
2021/08/08 00:53:43;;;;;;;6.15;2.50;;;17.80;99.90;;;18.56;93.23;100039.47;5051100;28;20200;-71
2021/08/08 00:56:11;;;;;;;7.45;2.45;;;17.80;99.90;;;18.57;93.33;100038.53;5051303;28;20665;-71
2021/08/08 00:58:38;;;;;;;8.50;2.58;;;17.80;99.90;;;18.56;93.06;100042.97;5034307;28;20196;-72
2021/08/08 01:01:08;;;;;;;7.32;2.65;;;17.70;99.90;;;18.53;93.03;100045.88;5034488;28;20228;-71
2021/08/08 01:03:37;;;;;;;7.07;2.20;;;17.80;99.90;;;18.50;93.15;100035.50;5034431;28;20189;-71
2021/08/08 01:06:24;;;;;;;8.07;2.50;;;17.70;99.90;;;18.50;93.26;100035.50;5050770;28;20196;-70
2021/08/08 01:08:56;;;;;;;6.85;2.50;;;17.70;99.90;;;18.50;93.06;100034.69;5034399;28;20208;-71
2021/08/08 01:11:25;;;;;;;7.60;2.47;;;17.70;99.90;;;18.48;92.89;100036.59;5034613;28;20641;-71
2021/08/08 01:13:56;;;;;;;6.97;2.65;;;17.70;99.90;;;18.44;93.01;100033.38;5034636;28;20220;-70
2021/08/08 01:16:24;;;;;;;7.22;2.50;;;17.70;99.90;;;18.41;93.10;100030.97;5034406;28;20195;-71
2021/08/08 01:18:57;;;;;;;6.50;2.40;;;17.70;99.90;;;18.41;93.10;100035.41;5051157;28;20291;-71
2021/08/08 01:21:31;;;;;;;7.88;2.60;;;17.60;99.90;;;18.40;93.09;100025.78;5034194;28;20216;-71
2021/08/08 01:24:01;;;;;;;6.05;2.60;;;17.60;99.90;;;18.40;92.79;100029.25;5052026;28;20185;-71
2021/08/08 01:26:31;;;;;;;7.80;2.42;;;17.60;99.90;;;18.37;92.95;100029.47;5034288;28;20203;-71
2021/08/08 01:28:59;;;;;;;7.88;2.70;;;17.60;99.90;;;18.35;92.73;100042.00;5052130;28;20212;-71
2021/08/08 01:31:27;;;;;;;6.65;2.53;;;17.60;99.90;;;18.33;93.17;100037.81;5034191;28;20193;-71
2021/08/08 01:33:54;;;;;;;7.65;2.63;;;17.60;99.90;;;18.31;92.75;100037.09;5034456;28;20213;-71
2021/08/08 01:36:21;;;;;;;6.90;2.38;;;17.60;99.90;;;18.29;93.26;100041.66;5034070;28;20200;-71
2021/08/08 01:38:57;;;;;;;7.35;3.03;;;17.60;99.90;;;18.27;93.12;100038.31;5034279;28;20263;-70
2021/08/08 01:41:31;;;;;;;6.57;2.50;;;17.50;99.90;;;18.24;93.10;100036.75;5050937;28;20223;-71
2021/08/08 01:44:02;;;;;;;7.38;2.60;;;17.50;99.90;;;18.23;93.20;100042.16;5053841;28;20204;-71
2021/08/08 01:46:34;;;;;;;6.30;2.67;;;17.50;99.90;;;18.22;92.99;100029.91;5037733;28;20223;-72
2021/08/08 01:49:13;;;;;;;10.18;2.80;;;17.50;99.90;;;18.20;93.24;100039.78;5038227;28;20212;-70
2021/08/08 01:51:41;;;;;;;8.15;2.85;;;17.40;99.90;;;18.20;93.29;100042.41;5056346;28;20199;-70
2021/08/08 01:54:10;;;;;;;7.45;2.65;;;17.50;99.90;;;18.16;93.10;100033.88;5038480;28;20192;-71
2021/08/08 01:56:40;;;;;;;7.82;2.72;;;17.40;99.90;;;18.14;93.35;100029.66;5055316;28;20201;-71
2021/08/08 01:59:07;;;;;;;9.45;3.00;;;17.40;99.90;;;18.13;93.18;100030.63;5039435;28;20588;-71
2021/08/08 02:01:36;;;;;;;7.47;2.63;;;17.40;99.90;;;18.13;93.27;100035.91;5055752;28;20304;-72
2021/08/08 02:04:16;;;;;;;8.93;2.83;;;17.40;99.90;;;18.13;93.21;100038.56;5058185;28;20264;-71
2021/08/08 02:06:45;;;;;;;8.13;2.42;;;17.40;99.90;;;18.14;92.83;100048.19;5038249;28;20199;-71
2021/08/08 02:09:14;;;;;;;7.82;2.67;;;17.40;99.90;;;18.14;93.06;100027.00;5040715;28;20245;-70
2021/08/08 02:11:42;;;;;;;7.75;2.78;;;17.40;99.90;;;18.13;92.92;100030.63;5040001;28;20204;-71
2021/08/08 02:14:12;;;;;;;7.60;2.95;;;17.40;99.90;;;18.13;93.08;100035.91;5037548;28;20211;-72
2021/08/08 02:16:39;;;;;;;8.88;2.53;;;17.40;99.90;;;18.10;92.87;100041.47;5038229;28;20212;-71
2021/08/08 02:19:08;;;;;;;9.18;2.58;;;17.30;99.90;;;18.05;92.66;100039.16;5038787;28;20213;-70
2021/08/08 02:21:41;;;;;;;9.27;3.30;;;17.30;99.90;;;18.03;93.13;100041.13;5039049;28;20344;-71
2021/08/08 02:24:09;;;;;;;7.10;2.65;;;17.30;99.90;;;18.04;92.75;100041.94;5040670;28;20193;-72
2021/08/08 02:26:44;;;;;;;7.57;2.80;;;17.30;99.90;;;18.03;93.19;100054.34;5040453;28;20193;-71
2021/08/08 02:29:12;;;;;;;7.13;2.58;;;17.30;99.90;;;18.00;92.95;100045.81;5037286;28;20754;-71
2021/08/08 02:31:42;;;;;;;7.70;2.65;;;17.20;99.90;;;18.00;92.76;100049.28;5037348;28;20199;-70
2021/08/08 02:34:15;;;;;;;8.40;2.72;;;17.20;99.90;;;17.98;92.96;100058.31;5037231;28;20657;-70
2021/08/08 02:36:44;;;;;;;8.65;2.92;;;17.20;99.90;;;17.92;92.81;100053.47;5053888;28;20216;-72
2021/08/08 02:39:12;;;;;;;7.97;2.85;;;17.20;99.90;;;17.91;93.06;100052.66;5037147;28;20647;-71
2021/08/08 02:41:39;;;;;;;11.07;2.72;;;17.10;99.90;;;17.91;93.00;100046.50;5037006;28;20256;-71
2021/08/08 02:44:08;;;;;;;9.00;3.22;;;17.20;99.90;;;17.90;92.86;100045.66;5037266;28;20210;-72
2021/08/08 02:46:36;;;;;;;7.35;2.58;;;17.10;99.90;;;17.90;92.85;100047.50;5037033;28;20199;-70
2021/08/08 02:49:03;;;;;;;5.68;2.30;;;17.10;99.90;;;17.88;92.72;100054.72;5053386;28;20211;-71
2021/08/08 02:51:32;;;;;;;7.75;2.53;;;17.10;99.90;;;17.85;92.93;100055.78;5036919;28;20203;-71
2021/08/08 02:54:00;;;;;;;7.85;2.67;;;17.10;99.90;;;17.86;92.92;100057.47;5035754;28;20657;-71
2021/08/08 02:56:26;;;;;;;9.48;2.70;;;17.10;99.90;;;17.87;92.88;100055.66;5054565;28;20536;-71
2021/08/08 02:58:53;;;;;;;8.50;3.20;;;17.10;99.90;;;17.88;92.69;100057.34;5036485;28;20205;-71
2021/08/08 03:01:21;;;;;;;9.73;2.70;;;17.10;99.90;;;17.87;92.57;100061.81;5036681;28;20231;-72
2021/08/08 03:03:48;;;;;;;7.57;2.83;;;17.10;99.90;;;17.86;92.95;100075.16;5053185;28;20580;-72
2021/08/08 03:06:18;;;;;;;8.00;2.63;;;17.10;99.90;;;17.88;92.52;100084.69;5054132;28;20177;-71
2021/08/08 03:08:45;;;;;;;8.02;2.70;;;17.10;99.90;;;17.91;92.68;100084.44;5036361;28;20680;-71
2021/08/08 03:11:12;;;;;;;8.98;2.47;;;17.10;99.90;;;17.94;92.79;100086.84;5036233;28;20584;-70
2021/08/08 03:13:41;;;;;;;7.07;2.55;;;17.20;99.90;;;17.93;92.54;100090.47;5054325;28;20181;-71
2021/08/08 03:16:09;;;;;;;6.82;2.40;;;17.20;99.90;;;17.94;92.43;100093.94;5036166;28;20692;-71
2021/08/08 03:18:37;;;;;;;7.47;2.67;;;17.20;99.90;;;17.91;92.28;100089.75;5036304;28;20196;-71
2021/08/08 03:21:06;;;;;;;8.02;2.70;;;17.20;99.90;;;17.91;92.72;100099.47;5036351;28;20235;-71
2021/08/08 03:23:33;;;;;;;9.23;2.75;;;17.20;99.90;;;17.94;92.50;100094.78;5052581;28;20684;-71
2021/08/08 03:26:02;;;;;;;8.23;2.75;;;17.20;99.90;;;17.98;92.17;100106.00;5036091;28;20278;-70
2021/08/08 03:28:30;;;;;;;7.30;2.65;;;17.20;99.90;;;17.97;92.10;100105.13;5035859;28;20615;-70
2021/08/08 03:30:58;;;;;;;7.15;2.50;;;17.20;99.90;;;17.99;92.40;100102.38;5052850;28;20189;-71
2021/08/08 03:33:24;;;;;;;6.57;2.42;;;17.20;99.90;;;17.98;92.13;100100.69;5035860;28;20563;-71
2021/08/08 03:35:52;;;;;;;9.05;2.60;;;17.20;99.90;;;17.98;92.31;100104.19;5035980;28;20283;-69
2021/08/08 03:38:20;;;;;;;8.40;2.75;;;17.20;99.90;;;17.99;92.34;100105.00;5052207;28;20197;-71
2021/08/08 03:40:47;;;;;;;7.43;2.70;;;17.20;99.90;;;18.00;92.15;100115.47;5035596;28;20639;-70
2021/08/08 03:43:14;;;;;;;7.25;2.40;;;17.20;99.90;;;17.99;92.11;100123.56;5035825;28;20188;-70
2021/08/08 03:45:40;;;;;;;9.18;2.70;;;17.20;99.90;;;18.00;92.01;100118.13;5036405;28;20193;-70
2021/08/08 03:48:08;;;;;;;7.65;2.50;;;17.20;99.90;;;18.00;91.76;100119.97;5044932;28;20240;-73
2021/08/08 03:50:35;;;;;;;7.10;2.42;;;17.20;99.90;;;18.00;91.82;100131.38;5059982;28;20215;-73
2021/08/08 03:53:04;;;;;;;7.38;2.55;;;17.20;99.90;;;17.99;91.48;100131.50;5073898;28;20189;-72
2021/08/08 03:55:31;;;;;;;7.30;2.72;;;17.20;99.90;;;17.98;91.76;100137.75;5057129;28;20200;-70
2021/08/08 03:57:57;;;;;;;6.55;2.40;;;17.20;99.90;;;17.96;91.56;100144.97;5052840;28;20200;-71
2021/08/08 04:00:26;;;;;;;7.65;2.40;;;17.20;99.90;;;17.96;91.75;100150.28;5052200;28;20219;-71
2021/08/08 04:02:54;;;;;;;9.98;2.47;;;17.20;99.90;;;17.95;91.41;100149.44;5035363;28;20546;-70
2021/08/08 04:05:23;;;;;;;9.40;2.58;;;17.20;99.90;;;17.95;91.38;100154.72;5034699;28;20193;-70
2021/08/08 04:07:50;;;;;;;9.32;2.70;;;17.20;99.90;;;17.93;91.50;100155.81;5035467;28;20189;-70
2021/08/08 04:10:19;;;;;;;9.25;2.80;;;17.20;99.90;;;17.89;91.68;100160.50;5052121;28;20707;-70
2021/08/08 04:12:47;;;;;;;9.68;2.90;;;17.20;99.90;;;17.86;91.58;100167.84;5035335;28;20195;-70
2021/08/08 04:15:19;;;;;;;6.60;2.50;;;17.20;99.90;;;17.86;91.55;100166.03;5035586;28;20433;-69
2021/08/08 04:17:46;;;;;;;8.93;2.70;;;17.20;99.90;;;17.87;91.59;100166.84;5051400;28;20314;-70
2021/08/08 04:20:14;;;;;;;8.23;2.50;;;17.20;99.90;;;17.87;91.79;100167.72;5035087;28;20628;-70
2021/08/08 04:22:40;;;;;;;7.25;2.40;;;17.20;99.90;;;17.90;91.60;100172.75;5051739;28;20284;-71
2021/08/08 04:25:08;;;;;;;8.95;2.60;;;17.20;99.90;;;17.91;91.82;100178.91;5035198;28;20193;-70
2021/08/08 04:27:36;;;;;;;7.70;2.55;;;17.20;99.90;;;17.90;91.61;100177.25;5051460;28;20189;-71
2021/08/08 04:30:04;;;;;;;7.82;2.97;;;17.20;99.90;;;17.94;91.66;100183.97;5035257;28;20688;-70
2021/08/08 04:32:33;;;;;;;7.47;2.78;;;17.20;99.90;;;17.97;91.16;100183.72;5035121;28;20673;-71
2021/08/08 04:35:01;;;;;;;8.48;2.53;;;17.30;99.90;;;17.98;91.07;100194.22;5035194;28;20192;-70
2021/08/08 04:37:28;;;;;;;8.80;2.47;;;17.30;99.90;;;18.00;91.26;100194.13;5051544;28;20188;-71
2021/08/08 04:39:55;;;;;;;6.20;2.08;;;17.30;99.90;;;18.04;90.86;100198.19;5051487;28;20228;-70
2021/08/08 04:42:22;;;;;;;7.10;2.55;;;17.30;99.90;;;18.04;90.80;100195.53;5034890;28;20225;-70
2021/08/08 04:44:50;;;;;;;6.78;2.17;;;17.30;99.90;;;18.01;90.22;100201.94;5034682;28;20219;-70
2021/08/08 04:47:17;;;;;;;8.73;2.28;;;17.30;99.90;;;17.97;90.49;100203.13;5051177;28;20661;-72
2021/08/08 04:49:46;;;;;;;7.72;2.30;;;17.30;99.90;;;17.99;90.33;100203.00;5034519;28;20213;-71
2021/08/08 04:52:13;;;;;;;8.13;2.55;;;17.30;99.90;;;17.99;90.33;100209.16;5034586;28;20196;-72
2021/08/08 04:54:40;;;;;;;6.75;2.10;;;17.30;99.90;;;17.99;90.34;100206.50;5034870;28;20181;-70
2021/08/08 04:57:07;;;;;;;6.82;2.28;;;17.30;99.90;;;18.00;90.21;100204.72;5034273;28;20199;-71
2021/08/08 04:59:34;;;;;;;8.85;2.22;;;17.30;99.90;;;17.98;89.90;100204.81;5034228;28;20700;-70
2021/08/08 05:02:02;;;;;;;6.88;2.20;;;17.30;99.90;;;17.94;89.74;100206.00;5052441;28;20204;-70
2021/08/08 05:04:30;;;;;;;6.22;2.10;;;17.20;99.90;;;17.88;89.63;100201.19;5051196;28;20197;-71
2021/08/08 05:06:57;;;;;;;6.13;2.00;;;17.20;99.90;;;17.88;90.10;100211.78;5050808;28;20189;-72
2021/08/08 05:09:24;;;;;;;6.25;2.38;;;17.20;99.90;;;17.90;89.46;100211.66;5051091;28;20221;-71
2021/08/08 05:11:51;;;;;;;6.88;1.90;;;17.20;99.90;;;17.90;89.69;100207.19;5051451;28;20193;-71
2021/08/08 05:14:18;;;;;;;7.05;2.13;;;17.20;99.90;;;17.90;89.66;100212.47;5034721;28;20217;-71
2021/08/08 05:16:45;;;;;;;6.05;2.00;;;17.20;99.90;;;17.90;89.10;100224.91;5034311;28;20188;-71
2021/08/08 05:19:13;;;;;;;6.07;1.95;;;17.20;99.90;;;17.93;89.17;100219.38;5056253;28;20215;-71
2021/08/08 05:21:40;;;;;;;6.05;2.17;;;17.20;99.90;;;17.94;89.44;100226.34;5038780;28;20608;-71
2021/08/08 05:24:07;;;;;;;8.43;2.42;;;17.20;99.90;;;17.96;88.77;100224.44;5038844;28;20224;-70
2021/08/08 05:26:33;;;;;;;7.35;2.10;;;17.30;99.90;;;17.98;89.14;100227.81;5055180;28;20197;-70
2021/08/08 05:29:00;;;;;;;6.78;2.08;;;17.30;99.90;;;18.01;89.20;100224.91;5038468;28;20247;-72
2021/08/08 05:31:30;;;;;;;9.70;2.08;;;17.30;99.90;;;18.04;89.01;100232.63;5039142;28;20684;-71
2021/08/08 05:33:56;;;;;;;9.75;2.00;;;17.30;99.90;;;18.06;88.74;100236.00;5039098;28;20202;-70
2021/08/08 05:36:25;;;;;;;6.68;2.15;;;17.40;99.90;;;18.07;88.74;100240.38;5038499;28;20202;-71
2021/08/08 05:38:51;;;;;;;7.50;2.00;;;17.40;99.90;;;18.09;88.50;100239.28;5038304;28;20205;-71
2021/08/08 05:41:18;;;;;;;6.07;1.95;;;17.40;99.90;;;18.13;88.38;100253.13;5039186;28;20209;-71
2021/08/08 05:43:45;;;;;;;6.05;1.60;;;17.40;99.90;;;18.15;88.09;100259.16;5054922;28;20572;-70
2021/08/08 05:46:12;;;;;;;4.47;1.50;;;17.40;99.90;;;18.18;88.07;100266.88;5037886;28;20196;-69
2021/08/08 05:48:39;;;;;;;7.45;2.25;;;17.50;99.90;;;18.22;87.49;100277.09;5055193;28;20212;-71
2021/08/08 05:51:06;;;;;;;4.68;1.80;;;17.50;99.90;;;18.24;87.66;100277.00;5055835;28;20717;-71
2021/08/08 05:53:34;;;;;;;6.03;1.70;;;17.50;99.90;;;18.25;87.55;100287.47;5055607;28;20192;-70
2021/08/08 05:56:00;;;;;;;6.13;1.73;;;17.60;99.90;;;18.25;87.14;100279.53;5054471;28;20200;-70
2021/08/08 05:58:31;;;;;;;4.20;1.60;;;17.60;99.90;;;18.31;87.21;100283.50;5038155;28;20213;-71
2021/08/08 06:00:57;;;;;;;5.15;1.70;;;17.60;99.90;;;18.36;87.19;100284.84;5054430;28;20199;-70
2021/08/08 06:03:24;;;;;;;6.15;1.52;;;17.70;99.90;;;18.40;87.03;100288.97;5038101;28;20676;-70
2021/08/08 06:05:51;;;;;;;5.30;1.60;;;17.70;99.90;;;18.45;86.61;100293.94;5037698;28;20197;-70
2021/08/08 06:08:18;;;;;;;4.53;1.60;;;17.70;99.90;;;18.46;86.51;100296.47;5037749;28;20213;-71
2021/08/08 06:10:46;;;;;;;5.38;1.60;;;17.80;99.90;;;18.45;85.81;100289.47;5037866;28;20236;-71
2021/08/08 06:13:16;;;;;;;4.35;1.50;;;17.80;99.90;;;18.48;86.12;100294.56;5037507;28;20327;-70
2021/08/08 06:15:45;;;;;;;5.30;1.73;;;17.80;99.90;;;18.52;86.06;100295.16;5037604;28;20572;-71
2021/08/08 06:18:13;;;;;;;5.35;1.50;;;17.80;99.90;;;18.55;85.92;100295.75;5037534;28;20192;-71
2021/08/08 06:20:40;;;;;;;4.93;1.40;;;17.80;99.90;;;18.56;85.69;100293.97;5037432;28;20484;-71
2021/08/08 06:23:08;;;;;;;7.40;1.70;;;17.80;99.90;;;18.58;85.21;100292.88;5053873;28;20228;-71
2021/08/08 06:25:36;;;;;;;4.18;1.50;;;17.90;99.90;;;18.61;85.16;100297.94;5037762;28;20545;-71
2021/08/08 06:28:05;;;;;;;5.75;1.95;;;17.90;99.90;;;18.65;85.25;100287.94;5036634;28;20577;-71
2021/08/08 06:30:32;;;;;;;5.70;1.73;;;17.90;99.90;;;18.68;85.26;100293.00;5037403;28;20266;-70
2021/08/08 06:32:58;;;;;;;5.05;1.45;;;18.00;99.90;;;18.71;85.15;100293.63;5037079;28;20204;-72
2021/08/08 06:35:26;;;;;;;4.32;1.67;;;18.00;99.90;;;18.72;84.44;100294.47;5037550;28;20279;-71
2021/08/08 06:37:53;;;;;;;6.25;1.90;;;18.00;99.90;;;18.77;84.48;100293.13;5037306;28;20283;-71
2021/08/08 06:40:20;;;;;;;6.00;1.85;;;18.10;99.90;;;18.80;84.01;100302.66;5051419;28;20208;-71
2021/08/08 06:42:47;;;;;;;5.70;1.70;;;18.10;99.90;;;18.85;84.10;100295.19;5067328;28;20700;-71
2021/08/08 06:45:18;;;;;;;4.93;1.63;;;18.30;99.90;;;18.95;83.57;100297.97;5055372;28;20216;-73
2021/08/08 06:47:46;;;;;;;5.20;1.50;;;18.50;99.90;;;19.03;83.57;100299.03;5054794;28;20208;-71
2021/08/08 06:50:13;;;;;;;5.97;1.55;;;19.00;99.90;;;19.13;83.35;100299.16;5059842;28;20264;-72
2021/08/08 06:52:40;;;;;;;3.65;1.40;;;19.60;99.90;;;19.19;82.79;100304.81;5078487;28;20181;-70
2021/08/08 06:55:09;;;;;;;5.80;1.50;;;19.70;99.90;;;19.26;82.65;100303.34;5062295;28;20176;-74
2021/08/08 06:57:35;;;;;;;3.97;1.50;;;19.60;99.90;;;19.31;82.32;100303.88;5079571;28;20161;-74
2021/08/08 07:00:09;;;;;;;4.18;1.55;;;19.40;99.90;;;19.38;81.66;100299.75;5062681;28;20213;-72
2021/08/08 07:02:37;;;;;;;5.40;1.70;;;19.30;99.90;;;19.40;81.22;100300.50;5062481;28;20209;-73
2021/08/08 07:05:06;;;;;;;5.30;1.30;;;19.20;99.90;;;19.45;80.51;100298.31;5062394;28;20190;-74
2021/08/08 07:07:34;;;;;;;4.57;1.40;;;19.20;99.90;;;19.51;80.58;100302.25;5061449;28;20200;-73
2021/08/08 07:10:02;;;;;;;5.72;1.42;;;19.20;99.90;;;19.58;80.44;100306.94;5057503;28;20227;-72
2021/08/08 07:12:29;;;;;;;6.40;1.48;;;19.20;99.90;;;19.69;80.16;100314.06;5073673;28;20185;-73
2021/08/08 07:14:57;;;;;;;5.85;1.73;;;19.30;99.90;;;19.77;79.96;100311.59;5060081;28;20252;-72
2021/08/08 07:17:24;;;;;;;5.80;1.60;;;19.40;99.90;;;19.85;80.23;100314.47;5061675;28;20207;-74
2021/08/08 07:19:52;;;;;;;3.20;1.30;;;19.50;99.90;;;19.93;79.20;100304.06;5057395;28;20212;-73
2021/08/08 07:22:19;;;;;;;3.13;1.20;;;19.50;99.90;;;19.98;78.80;100316.00;5061700;28;20215;-74
2021/08/08 07:24:51;;;;;;;5.78;1.52;;;19.60;99.90;;;20.04;77.52;100324.44;5055319;28;20235;-71
2021/08/08 07:27:18;;;;;;;3.92;1.40;;;19.70;99.90;;;20.04;76.89;100325.28;5042544;28;20242;-72
2021/08/08 07:29:45;;;;;;;3.60;1.17;;;19.70;99.90;;;20.07;76.25;100327.69;5045202;28;20284;-72
2021/08/08 07:32:12;;;;;;;3.10;1.17;;;19.70;99.90;;;20.09;75.93;100330.22;5053529;28;20193;-71
2021/08/08 07:34:39;;;;;;;4.50;1.65;;;19.70;99.90;;;20.16;75.45;100334.09;5056341;28;20220;-71
2021/08/08 07:37:08;;;;;;;6.72;2.17;;;19.70;99.90;;;20.19;75.50;100334.66;5037683;28;20688;-71
2021/08/08 07:39:37;;;;;;;7.65;2.10;;;19.80;99.90;;;20.27;75.13;100342.84;5038152;28;20259;-71
2021/08/08 07:42:05;;;;;;;11.27;4.35;;;19.90;99.90;;;20.35;75.43;100342.19;5037843;28;20762;-71
2021/08/08 07:44:32;;;;;;;4.55;1.50;;;20.00;99.90;;;20.41;74.41;100349.66;5036853;28;20681;-70
2021/08/08 07:46:59;;;;;;;5.70;1.40;;;20.00;99.90;;;20.43;73.89;100337.91;5036061;28;20189;-71
2021/08/08 07:49:26;;;;;;;2.88;1.10;;;20.00;99.90;;;20.43;72.52;100353.88;5036573;28;20213;-71
2021/08/08 07:51:52;;;;;;;4.07;1.35;;;20.00;99.90;;;20.42;72.05;100356.66;5036177;28;20561;-72
2021/08/08 07:54:21;;;;;;;3.53;1.20;;;20.00;99.90;;;20.42;71.93;100362.84;5052819;28;20641;-71
2021/08/08 07:56:49;;;;;;;6.63;1.30;;;20.10;99.90;;;20.45;71.40;100359.06;5036045;28;20200;-71
2021/08/08 07:59:16;;;;;;;2.95;1.00;;;20.10;99.90;;;20.49;70.35;100353.38;5035901;28;20218;-72
2021/08/08 08:01:43;;;;;;;4.50;1.30;;;20.20;99.90;;;20.54;69.74;100371.59;5036667;28;20662;-70
2021/08/08 08:04:10;;;;;;;5.65;1.40;;;20.20;99.90;;;20.53;69.39;100364.59;5052545;28;20193;-71
2021/08/08 08:06:39;;;;;;;3.78;1.25;;;20.20;99.90;;;20.49;69.15;100373.78;5035475;28;20220;-71
2021/08/08 08:09:06;;;;;;;5.35;1.17;;;20.20;99.90;;;20.46;68.80;100374.06;5053939;28;20258;-71
2021/08/08 08:11:36;;;;;;;4.20;1.30;;;20.10;99.90;;;20.48;68.65;100372.13;5036639;28;20279;-71
2021/08/08 08:14:02;;;;;;;3.13;1.15;;;20.20;99.90;;;20.59;68.86;100374.69;5038237;28;20287;-71
2021/08/08 08:16:29;;;;;;;2.50;1.13;;;20.30;99.90;;;20.77;68.44;100376.66;5061079;28;20196;-71
2021/08/08 08:18:56;;;;;;;2.88;1.08;;;20.50;99.90;;;20.90;68.06;100373.78;5056452;28;20212;-70
2021/08/08 08:21:23;;;;;;;2.40;1.10;;;20.60;99.90;;;20.92;67.82;100377.16;5035455;28;20196;-71
2021/08/08 08:23:50;;;;;;;3.50;1.35;;;20.70;99.90;;;20.93;67.88;100379.69;5036730;28;20650;-72
2021/08/08 08:26:17;;;;;;;4.65;1.40;;;20.70;99.90;;;20.94;67.84;100380.53;5036034;28;20193;-71
2021/08/08 08:28:45;;;;;;;2.08;1.00;;;20.70;99.90;;;20.97;67.76;100391.78;5036330;28;20224;-70
2021/08/08 08:31:13;;;;;;;4.45;1.25;;;20.70;99.90;;;21.02;66.95;100384.25;5052313;28;20188;-71
2021/08/08 08:33:40;;;;;;;2.92;1.15;;;20.80;99.90;;;21.11;66.83;100393.28;5052338;28;20680;-71
2021/08/08 08:36:07;;;;;;;3.85;1.05;;;20.90;99.90;;;21.21;66.20;100386.16;5041191;28;20197;-72
2021/08/08 08:38:34;;;;;;;4.88;0.98;;;21.00;99.90;;;21.29;66.00;100389.00;5052056;28;20638;-71
2021/08/08 08:41:05;;;;;;;1.90;1.00;;;21.20;99.90;;;21.39;64.76;100378.38;5035116;28;20196;-71
2021/08/08 08:43:32;;;;;;;4.53;1.27;;;21.30;99.90;;;21.42;64.53;100386.94;5034969;28;20304;-72
2021/08/08 08:46:03;;;;;;;4.15;1.38;;;21.30;99.90;;;21.41;64.57;100390.59;5035239;28;20188;-71
2021/08/08 08:48:32;;;;;;;8.23;2.90;;;21.30;99.90;;;21.43;64.50;100379.81;5036677;28;20665;-72
2021/08/08 08:51:03;;;;;;;8.50;2.78;;;21.30;99.90;;;21.42;64.94;100391.44;5036104;28;20236;-71
2021/08/08 08:53:31;;;;;;;4.53;1.45;;;21.30;99.90;;;21.36;64.69;100386.66;5053899;28;20679;-71
2021/08/08 08:56:01;;;;;;;5.63;1.60;;;21.30;99.90;;;21.31;64.74;100384.41;5052312;28;20200;-70
2021/08/08 08:58:31;;;;;;;5.47;1.95;;;21.20;99.90;;;21.36;64.93;100379.50;5035275;28;20664;-71
2021/08/08 09:00:58;;;;;;;4.70;1.40;;;21.20;99.90;;;21.36;64.63;100398.16;5035047;28;20568;-71
2021/08/08 09:03:26;;;;;;;5.32;1.50;;;21.30;99.90;;;21.32;64.75;100391.41;5035593;28;20217;-70
2021/08/08 09:05:53;;;;;;;5.03;1.42;;;21.20;99.90;;;21.45;64.89;100388.50;5052790;28;20206;-71
2021/08/08 09:08:21;;;;;;;3.85;1.40;;;21.30;99.90;;;21.64;64.39;100392.06;5035253;28;20203;-71
2021/08/08 09:11:02;;;;;;;5.80;1.20;;;21.50;99.90;;;21.86;64.27;100396.38;5035374;28;20188;-70
2021/08/08 09:13:32;;;;;;;4.68;1.40;;;21.80;99.90;;;21.97;63.99;100388.28;5053376;28;20243;-71
2021/08/08 09:15:59;;;;;;;6.80;1.50;;;22.00;99.90;;;21.99;63.27;100391.63;5036721;28;20684;-71
2021/08/08 09:18:27;;;;;;;3.45;1.30;;;22.00;99.90;;;21.93;63.51;100401.03;5061148;28;20231;-71
2021/08/08 09:21:10;;;;;;;3.25;1.35;;;22.00;99.90;;;21.95;63.12;100395.56;5052631;28;20243;-70
2021/08/08 09:23:40;;;;;;;6.55;1.38;;;22.00;99.90;;;22.02;63.59;100402.03;5050920;28;20239;-73
2021/08/08 09:26:07;;;;;;;2.40;0.98;;;22.10;99.90;;;22.09;63.06;100398.66;5048530;28;20195;-72
2021/08/08 09:28:40;;;;;;;4.57;1.50;;;22.10;99.90;;;22.18;62.98;100410.31;5044997;28;20220;-72
2021/08/08 09:31:21;;;;;;;3.13;1.23;;;22.20;99.90;;;22.19;62.74;100414.66;5042579;28;20206;-71
2021/08/08 09:33:50;;;;;;;5.45;1.70;;;22.20;99.90;;;22.12;62.33;100406.38;5061036;28;20188;-71
2021/08/08 09:36:17;;;;;;;5.45;1.40;;;22.20;99.90;;;22.05;62.59;100413.22;5061422;28;20189;-71
2021/08/08 09:38:45;;;;;;;4.55;1.35;;;22.10;99.90;;;21.92;62.27;100420.66;5057618;28;20338;-71
2021/08/08 09:41:23;;;;;;;4.93;1.63;;;21.90;99.90;;;21.79;62.67;100420.06;5060870;28;20248;-72
2021/08/08 09:43:50;;;;;;;5.00;1.48;;;21.80;99.90;;;21.74;62.87;100432.06;5065404;28;20266;-71
2021/08/08 09:46:18;;;;;;;2.95;1.17;;;21.70;99.90;;;21.79;62.52;100428.06;5065778;28;20192;-71
2021/08/08 09:48:45;;;;;;;5.15;1.20;;;21.80;99.90;;;21.88;61.88;100431.72;5046708;28;20311;-71
2021/08/08 09:51:13;;;;;;;5.38;1.70;;;21.90;99.90;;;22.00;62.07;100447.47;5061933;28;20181;-71
2021/08/08 09:53:40;;;;;;;5.55;1.80;;;22.00;99.90;;;22.13;61.47;100431.22;5054367;28;20192;-70
2021/08/08 09:56:17;;;;;;;4.55;1.40;;;22.20;99.90;;;22.23;60.20;100432.06;5052821;28;20185;-71
2021/08/08 09:58:47;;;;;;;3.20;1.00;;;22.30;99.90;;;22.29;59.94;100435.03;5052316;28;20213;-71
2021/08/08 10:01:14;;;;;;;5.57;1.20;;;22.30;99.90;;;22.37;59.73;100437.03;5052314;28;20189;-70
2021/08/08 10:03:41;;;;;;;3.28;1.30;;;22.40;99.90;;;22.49;60.04;100435.06;5053721;28;20267;-71
2021/08/08 10:06:13;;;;;;;5.32;2.00;;;22.50;99.90;;;22.63;59.69;100442.66;5061774;28;20199;-71
2021/08/08 10:08:44;;;;;;;5.75;1.45;;;22.70;99.90;;;22.72;59.19;100444.47;5060413;28;20189;-72
2021/08/08 10:11:11;;;;;;;4.45;1.40;;;22.80;99.90;;;22.79;59.56;100450.94;5060135;28;20185;-72
2021/08/08 10:13:52;;;;;;;2.80;1.20;;;22.90;99.90;;;22.84;58.53;100443.34;5063346;28;20180;-71
2021/08/08 10:16:20;;;;;;;5.35;1.73;;;22.90;99.90;;;22.76;58.80;100453.88;5058588;28;20279;-73
2021/08/08 10:18:54;;;;;;;5.68;1.50;;;22.90;99.90;;;22.68;58.63;100457.25;5038380;28;20235;-72